Hlavní strana
METAR-TAF:

METAR-TAF

Letiště :

Huntsville, Alabama, Spojené státy americké

zeměpisná šířka: 34-51-41N, zeměpisná délka: 086-33-26W, výška: 230 m

Aktuální stav počasí

Zpráva byla vytvořena před 28 minutami, v 10:35 UTC
Bezvětří
Teplota 19°C
Vlhkost vzduchu 94%
Tlak 1021 hPa
Viditelnost: 8.0 km
kouřmo

METAR: KMDQ 241035Z AUTO 00000KT 5SM BR 19/18 A3015 RMK A02 T01860181

Čas: 06:03 (11:03 UTC)


TAF: chybějící

Stav a předpovědi počasí z více než 4 000 letišť (zprávy METAR a TAF).

Červené a žluté tečky na mapě představují dostupné meteorologické stanice.

Když kurzor umístíte na tečku, zobrazí se název stanice.

Pak kliknutím zobrazíte stav a předpověď počasí.

Chcete-li změnit mapu, kliknutím na zelené tlačítko se znaménkem +mapu přiblížíte, kliknutím na zelené tlačítko se znaménkem – mapu oddálíte a kliknutím na zelené šipky přejdete na sousední mapy.


METAR-TAF: